map of DUS home
DUS - Airport
Location
City:  Düsseldorf, North Rhine-Westphalia, Germany
Near (Alt.):Duesseldorf
Name:Rhein-Ruhr
ICAO:EDDL
IATA:DUS

Details
Type:Airport (Flugplatz, Airfield)
Use:Public/Civil, International (customs port of entry)
Latitude:51°17'22"N (51.289453)
Longitude:6°46'00"E (6.766775)
Datum:WGS 1984
Elevation:147 ft (45 m)
Variation:1.79°E (WMM2015 magnetic declination)
0.14° annual change
Runways:2
Longest:9842 × 148 ft (3000 × 45 m), paved

Time
Time Zone:UTC+1 (DST+2)
Local Time:

Weather
METAR:EDDL 200620Z 15012KT 9999 FEW030 SCT075 BKN130 14/12 Q1007 NOSIG
TAF:EDDL 200500Z 2006/2112 16012KT 9999 SCT045
TEMPO 2006/2012 16015G25KT SHRA BKN030TCU
BECMG 2010/2013 21015G25KT
BECMG 2015/2018 17011KT

Related Locations
Nearby:
Farthest:CHT: 11892 mi / 19139 km
Waitangi [Tuuta], CIT, NZ

Find:

   beyond  
but within

Other Information
Maps:
NOTAMs:
Links:
Sources:

  
flag of Germany
flag of North Rhine-Westphalia
flag of Düsseldorf
  

Sectional Chart

Flight Planning
at skyvector.com

Satellite Image

Google Maps Satellite view

 

Copyright © 2004-2017 Karl L. Swartz. All rights reserved.
The Great Circle Mapper name and logo are trademarks of the Great Circle Mapper.
All other trademarks mentioned herein belong to their respective owners.
Please see credits for attibutions and further copyright information.

  Follow gcmap on Facebook Follow gcmap on Twitter Follow gcmap on Google+ GCmap on LinkedIn

hCard Microformat

Geo Microformat